METAR Data
IDs: Format: Raw Decoded Include TAF

Data at: 0324 UTC 19 Oct 2021

LFMC 190300Z AUTO 00000KT 8000 ////// 07/06 Q1028